sensor_id;sensor_type;location;lat;lon;timestamp;temperature;humidity
51837;DHT22;38941;53.254;6.600;2023-06-14T00:01:43;16.90;79.20
51837;DHT22;38941;53.254;6.600;2023-06-14T00:03:47;16.90;79.60
51837;DHT22;38941;53.254;6.600;2023-06-14T00:05:48;16.90;80.10
51837;DHT22;38941;53.254;6.600;2023-06-14T00:07:50;16.80;80.60
51837;DHT22;38941;53.254;6.600;2023-06-14T00:09:53;16.80;81.10
51837;DHT22;38941;53.254;6.600;2023-06-14T00:11:54;16.70;81.50
51837;DHT22;38941;53.254;6.600;2023-06-14T00:13:55;16.60;82.10
51837;DHT22;38941;53.254;6.600;2023-06-14T00:15:56;16.60;82.40
51837;DHT22;38941;53.254;6.600;2023-06-14T00:17:58;16.60;83.00
51837;DHT22;38941;53.254;6.600;2023-06-14T00:20:03;16.60;83.40
51837;DHT22;38941;53.254;6.600;2023-06-14T00:22:07;16.60;83.80
51837;DHT22;38941;53.254;6.600;2023-06-14T00:24:08;16.50;84.20
51837;DHT22;38941;53.254;6.600;2023-06-14T00:26:09;16.60;84.70
51837;DHT22;38941;53.254;6.600;2023-06-14T00:28:10;16.50;85.10
51837;DHT22;38941;53.254;6.600;2023-06-14T00:30:11;16.40;85.50
51837;DHT22;38941;53.254;6.600;2023-06-14T00:32:18;16.40;85.80
51837;DHT22;38941;53.254;6.600;2023-06-14T00:34:19;16.40;86.70
51837;DHT22;38941;53.254;6.600;2023-06-14T00:36:20;16.30;86.60
51837;DHT22;38941;53.254;6.600;2023-06-14T00:38:21;16.30;87.00
51837;DHT22;38941;53.254;6.600;2023-06-14T00:40:22;16.30;87.30
51837;DHT22;38941;53.254;6.600;2023-06-14T00:42:27;16.20;87.50
51837;DHT22;38941;53.254;6.600;2023-06-14T00:44:28;16.20;87.80
51837;DHT22;38941;53.254;6.600;2023-06-14T00:46:29;16.20;88.30
51837;DHT22;38941;53.254;6.600;2023-06-14T00:48:30;16.20;89.30
51837;DHT22;38941;53.254;6.600;2023-06-14T00:50:32;16.10;89.00
51837;DHT22;38941;53.254;6.600;2023-06-14T00:52:36;16.10;89.30
51837;DHT22;38941;53.254;6.600;2023-06-14T00:54:36;16.10;89.70
51837;DHT22;38941;53.254;6.600;2023-06-14T00:56:44;16.00;89.90
51837;DHT22;38941;53.254;6.600;2023-06-14T00:58:45;16.00;90.30
51837;DHT22;38941;53.254;6.600;2023-06-14T01:00:46;15.90;90.30
51837;DHT22;38941;53.254;6.600;2023-06-14T01:02:47;15.90;90.40
51837;DHT22;38941;53.254;6.600;2023-06-14T01:04:49;15.90;90.60
51837;DHT22;38941;53.254;6.600;2023-06-14T01:06:57;15.90;90.70
51837;DHT22;38941;53.254;6.600;2023-06-14T01:09:38;15.80;90.80
51837;DHT22;38941;53.254;6.600;2023-06-14T01:12:00;15.80;91.70
51837;DHT22;38941;53.254;6.600;2023-06-14T01:14:03;15.80;91.60
51837;DHT22;38941;53.254;6.600;2023-06-14T01:16:06;15.70;91.20
51837;DHT22;38941;53.254;6.600;2023-06-14T01:18:08;15.70;91.40
51837;DHT22;38941;53.254;6.600;2023-06-14T01:20:18;15.70;91.60
51837;DHT22;38941;53.254;6.600;2023-06-14T01:22:20;15.60;92.50
51837;DHT22;38941;53.254;6.600;2023-06-14T01:24:25;15.60;91.50
51837;DHT22;38941;53.254;6.600;2023-06-14T01:26:26;15.50;91.90
51837;DHT22;38941;53.254;6.600;2023-06-14T01:28:29;15.50;92.10
51837;DHT22;38941;53.254;6.600;2023-06-14T01:30:34;15.50;92.30
51837;DHT22;38941;53.254;6.600;2023-06-14T01:32:36;15.50;92.60
51837;DHT22;38941;53.254;6.600;2023-06-14T01:34:36;15.40;92.60
51837;DHT22;38941;53.254;6.600;2023-06-14T01:36:39;15.40;92.80
51837;DHT22;38941;53.254;6.600;2023-06-14T01:38:42;15.40;92.90
51837;DHT22;38941;53.254;6.600;2023-06-14T01:40:45;15.40;93.10
51837;DHT22;38941;53.254;6.600;2023-06-14T01:42:47;15.30;93.20
51837;DHT22;38941;53.254;6.600;2023-06-14T01:44:51;15.30;93.30
51837;DHT22;38941;53.254;6.600;2023-06-14T01:46:53;15.30;93.50
51837;DHT22;38941;53.254;6.600;2023-06-14T01:48:54;15.20;93.60
51837;DHT22;38941;53.254;6.600;2023-06-14T01:50:58;15.20;93.80
51837;DHT22;38941;53.254;6.600;2023-06-14T01:52:58;15.20;93.90
51837;DHT22;38941;53.254;6.600;2023-06-14T01:55:01;15.00;94.00
51837;DHT22;38941;53.254;6.600;2023-06-14T01:57:02;15.20;94.20
51837;DHT22;38941;53.254;6.600;2023-06-14T01:59:04;15.00;94.60
51837;DHT22;38941;53.254;6.600;2023-06-14T02:01:05;15.10;94.40
51837;DHT22;38941;53.254;6.600;2023-06-14T02:03:05;15.10;94.60
51837;DHT22;38941;53.254;6.600;2023-06-14T02:05:07;15.10;94.80
51837;DHT22;38941;53.254;6.600;2023-06-14T02:07:08;15.00;94.90
51837;DHT22;38941;53.254;6.600;2023-06-14T02:09:09;15.00;95.00
51837;DHT22;38941;53.254;6.600;2023-06-14T02:11:09;15.00;95.20
51837;DHT22;38941;53.254;6.600;2023-06-14T02:13:10;15.00;95.30
51837;DHT22;38941;53.254;6.600;2023-06-14T02:15:12;15.00;95.40
51837;DHT22;38941;53.254;6.600;2023-06-14T02:17:20;15.00;95.50
51837;DHT22;38941;53.254;6.600;2023-06-14T02:19:22;15.00;95.60
51837;DHT22;38941;53.254;6.600;2023-06-14T02:21:23;15.00;95.80
51837;DHT22;38941;53.254;6.600;2023-06-14T02:23:24;14.90;95.80
51837;DHT22;38941;53.254;6.600;2023-06-14T02:25:25;14.90;95.90
51837;DHT22;38941;53.254;6.600;2023-06-14T02:27:28;14.90;96.00
51837;DHT22;38941;53.254;6.600;2023-06-14T02:29:28;14.90;96.10
51837;DHT22;38941;53.254;6.600;2023-06-14T02:31:29;14.90;96.20
51837;DHT22;38941;53.254;6.600;2023-06-14T02:33:31;14.90;96.40
51837;DHT22;38941;53.254;6.600;2023-06-14T02:35:32;14.90;96.50
51837;DHT22;38941;53.254;6.600;2023-06-14T02:37:34;14.80;96.50
51837;DHT22;38941;53.254;6.600;2023-06-14T02:39:35;14.80;96.70
51837;DHT22;38941;53.254;6.600;2023-06-14T02:41:37;14.80;96.70
51837;DHT22;38941;53.254;6.600;2023-06-14T02:43:38;14.80;96.90
51837;DHT22;38941;53.254;6.600;2023-06-14T02:45:39;14.30;96.80
51837;DHT22;38941;53.254;6.600;2023-06-14T02:47:43;14.70;97.10
51837;DHT22;38941;53.254;6.600;2023-06-14T02:49:44;14.70;97.30
51837;DHT22;38941;53.254;6.600;2023-06-14T02:51:46;14.70;97.40
51837;DHT22;38941;53.254;6.600;2023-06-14T02:53:47;14.70;97.50
51837;DHT22;38941;53.254;6.600;2023-06-14T02:55:48;14.60;97.60
51837;DHT22;38941;53.254;6.600;2023-06-14T02:57:53;14.60;97.70
51837;DHT22;38941;53.254;6.600;2023-06-14T02:59:55;14.60;97.80
51837;DHT22;38941;53.254;6.600;2023-06-14T03:01:57;14.60;97.90
51837;DHT22;38941;53.254;6.600;2023-06-14T03:03:57;14.60;98.00
51837;DHT22;38941;53.254;6.600;2023-06-14T03:05:58;14.60;98.10
51837;DHT22;38941;53.254;6.600;2023-06-14T03:08:05;14.50;98.20
51837;DHT22;38941;53.254;6.600;2023-06-14T03:10:09;14.50;98.30
51837;DHT22;38941;53.254;6.600;2023-06-14T03:12:10;14.50;98.50
51837;DHT22;38941;53.254;6.600;2023-06-14T03:14:11;14.40;98.60
51837;DHT22;38941;53.254;6.600;2023-06-14T03:16:13;14.50;98.70
51837;DHT22;38941;53.254;6.600;2023-06-14T03:18:14;14.40;98.70
51837;DHT22;38941;53.254;6.600;2023-06-14T03:20:16;14.50;98.90
51837;DHT22;38941;53.254;6.600;2023-06-14T03:22:17;14.40;99.00
51837;DHT22;38941;53.254;6.600;2023-06-14T03:24:19;14.40;99.10
51837;DHT22;38941;53.254;6.600;2023-06-14T03:26:20;14.40;99.10
51837;DHT22;38941;53.254;6.600;2023-06-14T03:28:22;14.30;99.20
51837;DHT22;38941;53.254;6.600;2023-06-14T03:30:24;14.40;99.30
51837;DHT22;38941;53.254;6.600;2023-06-14T03:32:25;14.30;99.30
51837;DHT22;38941;53.254;6.600;2023-06-14T03:34:26;14.30;99.50
51837;DHT22;38941;53.254;6.600;2023-06-14T03:36:27;14.30;99.60
51837;DHT22;38941;53.254;6.600;2023-06-14T03:38:31;14.30;99.60
51837;DHT22;38941;53.254;6.600;2023-06-14T03:40:32;14.30;99.80
51837;DHT22;38941;53.254;6.600;2023-06-14T03:42:33;14.30;99.90
51837;DHT22;38941;53.254;6.600;2023-06-14T03:44:33;14.20;99.90
51837;DHT22;38941;53.254;6.600;2023-06-14T03:46:34;14.20;99.90
51837;DHT22;38941;53.254;6.600;2023-06-14T03:48:35;14.20;99.90
51837;DHT22;38941;53.254;6.600;2023-06-14T03:50:36;14.30;99.90
51837;DHT22;38941;53.254;6.600;2023-06-14T03:52:40;14.20;99.90
51837;DHT22;38941;53.254;6.600;2023-06-14T03:54:43;14.20;99.90
51837;DHT22;38941;53.254;6.600;2023-06-14T03:56:44;14.30;99.90
51837;DHT22;38941;53.254;6.600;2023-06-14T03:58:49;14.30;99.90
51837;DHT22;38941;53.254;6.600;2023-06-14T04:00:50;14.20;99.90
51837;DHT22;38941;53.254;6.600;2023-06-14T04:02:51;14.30;99.90
51837;DHT22;38941;53.254;6.600;2023-06-14T04:04:51;14.30;99.90
51837;DHT22;38941;53.254;6.600;2023-06-14T04:06:56;14.30;99.90
51837;DHT22;38941;53.254;6.600;2023-06-14T04:09:00;14.30;99.90
51837;DHT22;38941;53.254;6.600;2023-06-14T04:11:02;14.30;99.90
51837;DHT22;38941;53.254;6.600;2023-06-14T04:13:03;14.30;99.90
51837;DHT22;38941;53.254;6.600;2023-06-14T04:15:06;14.30;99.90
51837;DHT22;38941;53.254;6.600;2023-06-14T04:17:09;14.30;99.90
51837;DHT22;38941;53.254;6.600;2023-06-14T04:19:09;14.40;99.90
51837;DHT22;38941;53.254;6.600;2023-06-14T04:21:10;14.40;99.90
51837;DHT22;38941;53.254;6.600;2023-06-14T04:23:17;14.40;99.90
51837;DHT22;38941;53.254;6.600;2023-06-14T04:25:19;14.40;99.90
51837;DHT22;38941;53.254;6.600;2023-06-14T04:27:21;14.50;99.90
51837;DHT22;38941;53.254;6.600;2023-06-14T04:29:34;14.50;99.90
51837;DHT22;38941;53.254;6.600;2023-06-14T04:31:35;14.40;99.90
51837;DHT22;38941;53.254;6.600;2023-06-14T04:33:40;14.60;99.90
51837;DHT22;38941;53.254;6.600;2023-06-14T04:35:44;14.60;99.90
51837;DHT22;38941;53.254;6.600;2023-06-14T04:37:47;14.60;99.90
51837;DHT22;38941;53.254;6.600;2023-06-14T04:39:49;14.70;99.90
51837;DHT22;38941;53.254;6.600;2023-06-14T04:41:50;14.70;99.90
51837;DHT22;38941;53.254;6.600;2023-06-14T04:44:00;14.70;99.90
51837;DHT22;38941;53.254;6.600;2023-06-14T04:46:01;14.80;99.90
51837;DHT22;38941;53.254;6.600;2023-06-14T04:48:03;14.80;99.90
51837;DHT22;38941;53.254;6.600;2023-06-14T04:50:06;14.80;99.90
51837;DHT22;38941;53.254;6.600;2023-06-14T04:52:07;14.90;99.90
51837;DHT22;38941;53.254;6.600;2023-06-14T04:54:12;14.90;99.90
51837;DHT22;38941;53.254;6.600;2023-06-14T04:56:14;15.00;99.90
51837;DHT22;38941;53.254;6.600;2023-06-14T04:58:15;15.00;99.90
51837;DHT22;38941;53.254;6.600;2023-06-14T05:00:16;15.10;99.90
51837;DHT22;38941;53.254;6.600;2023-06-14T05:02:18;15.10;99.90
51837;DHT22;38941;53.254;6.600;2023-06-14T05:04:19;15.20;99.90
51837;DHT22;38941;53.254;6.600;2023-06-14T05:06:21;15.30;99.90
51837;DHT22;38941;53.254;6.600;2023-06-14T05:08:24;15.40;99.90
51837;DHT22;38941;53.254;6.600;2023-06-14T05:10:24;15.40;99.90
51837;DHT22;38941;53.254;6.600;2023-06-14T05:12:25;15.50;99.90
51837;DHT22;38941;53.254;6.600;2023-06-14T05:14:26;15.50;99.90
51837;DHT22;38941;53.254;6.600;2023-06-14T05:16:27;15.40;99.90
51837;DHT22;38941;53.254;6.600;2023-06-14T05:18:29;15.70;99.90
51837;DHT22;38941;53.254;6.600;2023-06-14T05:20:30;15.70;99.90
51837;DHT22;38941;53.254;6.600;2023-06-14T05:22:31;15.80;99.90
51837;DHT22;38941;53.254;6.600;2023-06-14T05:24:32;15.90;99.90
51837;DHT22;38941;53.254;6.600;2023-06-14T05:26:34;15.90;99.90
51837;DHT22;38941;53.254;6.600;2023-06-14T05:28:35;16.00;99.90
51837;DHT22;38941;53.254;6.600;2023-06-14T05:30:38;16.00;99.90
51837;DHT22;38941;53.254;6.600;2023-06-14T05:32:42;16.10;99.90
51837;DHT22;38941;53.254;6.600;2023-06-14T05:34:43;16.20;99.90
51837;DHT22;38941;53.254;6.600;2023-06-14T05:36:46;16.40;99.90
51837;DHT22;38941;53.254;6.600;2023-06-14T05:38:48;16.40;99.90
51837;DHT22;38941;53.254;6.600;2023-06-14T05:40:49;16.50;99.90
51837;DHT22;38941;53.254;6.600;2023-06-14T05:42:53;16.50;99.90
51837;DHT22;38941;53.254;6.600;2023-06-14T05:44:55;16.60;99.90
51837;DHT22;38941;53.254;6.600;2023-06-14T05:46:56;16.20;99.90
51837;DHT22;38941;53.254;6.600;2023-06-14T05:48:57;16.70;99.90
51837;DHT22;38941;53.254;6.600;2023-06-14T05:51:00;16.80;99.90
51837;DHT22;38941;53.254;6.600;2023-06-14T05:53:01;16.80;99.90
51837;DHT22;38941;53.254;6.600;2023-06-14T05:55:03;16.90;99.90
51837;DHT22;38941;53.254;6.600;2023-06-14T05:57:04;17.00;99.90
51837;DHT22;38941;53.254;6.600;2023-06-14T05:59:06;17.00;99.90
51837;DHT22;38941;53.254;6.600;2023-06-14T06:01:07;17.10;99.90
51837;DHT22;38941;53.254;6.600;2023-06-14T06:03:08;17.10;99.90
51837;DHT22;38941;53.254;6.600;2023-06-14T06:05:11;17.20;99.90
51837;DHT22;38941;53.254;6.600;2023-06-14T06:07:12;17.20;99.90
51837;DHT22;38941;53.254;6.600;2023-06-14T06:09:13;17.30;99.90
51837;DHT22;38941;53.254;6.600;2023-06-14T06:11:16;17.30;99.90
51837;DHT22;38941;53.254;6.600;2023-06-14T06:13:17;17.40;99.90
51837;DHT22;38941;53.254;6.600;2023-06-14T06:15:18;17.50;99.90
51837;DHT22;38941;53.254;6.600;2023-06-14T06:17:19;17.60;99.90
51837;DHT22;38941;53.254;6.600;2023-06-14T06:19:20;17.60;99.90
51837;DHT22;38941;53.254;6.600;2023-06-14T06:21:21;17.70;99.90
51837;DHT22;38941;53.254;6.600;2023-06-14T06:23:22;17.80;99.90
51837;DHT22;38941;53.254;6.600;2023-06-14T06:25:26;17.90;99.90
51837;DHT22;38941;53.254;6.600;2023-06-14T06:27:27;18.00;99.90
51837;DHT22;38941;53.254;6.600;2023-06-14T06:29:28;18.10;99.90
51837;DHT22;38941;53.254;6.600;2023-06-14T06:31:28;18.10;99.90
51837;DHT22;38941;53.254;6.600;2023-06-14T06:33:30;18.20;99.90
51837;DHT22;38941;53.254;6.600;2023-06-14T06:35:31;18.30;99.90
51837;DHT22;38941;53.254;6.600;2023-06-14T06:37:33;18.40;99.90
51837;DHT22;38941;53.254;6.600;2023-06-14T06:39:36;18.50;99.90
51837;DHT22;38941;53.254;6.600;2023-06-14T06:41:39;18.50;99.90
51837;DHT22;38941;53.254;6.600;2023-06-14T06:43:40;18.70;99.90
51837;DHT22;38941;53.254;6.600;2023-06-14T06:45:41;18.70;99.90
51837;DHT22;38941;53.254;6.600;2023-06-14T06:47:42;18.80;99.90
51837;DHT22;38941;53.254;6.600;2023-06-14T06:49:43;18.90;99.80
51837;DHT22;38941;53.254;6.600;2023-06-14T06:52:02;18.90;99.60
51837;DHT22;38941;53.254;6.600;2023-06-14T06:54:03;19.00;99.20
51837;DHT22;38941;53.254;6.600;2023-06-14T06:56:04;19.10;99.20
51837;DHT22;38941;53.254;6.600;2023-06-14T06:58:05;19.20;98.90
51837;DHT22;38941;53.254;6.600;2023-06-14T07:00:07;19.30;98.80
51837;DHT22;38941;53.254;6.600;2023-06-14T07:02:12;19.40;98.70
51837;DHT22;38941;53.254;6.600;2023-06-14T07:04:13;19.40;98.40
51837;DHT22;38941;53.254;6.600;2023-06-14T07:06:14;19.60;98.40
51837;DHT22;38941;53.254;6.600;2023-06-14T07:08:17;19.70;98.30
51837;DHT22;38941;53.254;6.600;2023-06-14T07:10:19;19.70;97.90
51837;DHT22;38941;53.254;6.600;2023-06-14T07:12:20;19.80;97.70
51837;DHT22;38941;53.254;6.600;2023-06-14T07:14:21;19.90;97.70
51837;DHT22;38941;53.254;6.600;2023-06-14T07:16:24;19.90;97.50
51837;DHT22;38941;53.254;6.600;2023-06-14T07:18:27;20.10;97.20
51837;DHT22;38941;53.254;6.600;2023-06-14T07:20:29;20.10;97.20
51837;DHT22;38941;53.254;6.600;2023-06-14T07:22:31;20.30;96.90
51837;DHT22;38941;53.254;6.600;2023-06-14T07:24:32;20.40;96.70
51837;DHT22;38941;53.254;6.600;2023-06-14T07:26:33;20.50;96.50
51837;DHT22;38941;53.254;6.600;2023-06-14T07:28:34;20.60;96.30
51837;DHT22;38941;53.254;6.600;2023-06-14T07:30:42;20.70;96.10
51837;DHT22;38941;53.254;6.600;2023-06-14T07:32:42;20.80;95.50
51837;DHT22;38941;53.254;6.600;2023-06-14T07:34:44;20.90;95.40
51837;DHT22;38941;53.254;6.600;2023-06-14T07:36:45;21.00;95.50
51837;DHT22;38941;53.254;6.600;2023-06-14T07:38:46;21.20;95.30
51837;DHT22;38941;53.254;6.600;2023-06-14T07:40:47;21.30;94.90
51837;DHT22;38941;53.254;6.600;2023-06-14T07:42:48;21.50;94.70
51837;DHT22;38941;53.254;6.600;2023-06-14T07:44:56;21.50;94.30
51837;DHT22;38941;53.254;6.600;2023-06-14T07:46:56;21.60;94.10
51837;DHT22;38941;53.254;6.600;2023-06-14T07:48:59;21.70;94.10
51837;DHT22;38941;53.254;6.600;2023-06-14T07:51:00;21.80;93.80
51837;DHT22;38941;53.254;6.600;2023-06-14T07:53:01;21.90;93.30
51837;DHT22;38941;53.254;6.600;2023-06-14T07:55:03;21.90;93.00
51837;DHT22;38941;53.254;6.600;2023-06-14T07:57:04;21.90;92.70
51837;DHT22;38941;53.254;6.600;2023-06-14T07:59:04;21.90;92.60
51837;DHT22;38941;53.254;6.600;2023-06-14T08:01:06;22.10;92.70
51837;DHT22;38941;53.254;6.600;2023-06-14T08:03:08;22.20;92.50
51837;DHT22;38941;53.254;6.600;2023-06-14T08:05:10;22.40;92.30
51837;DHT22;38941;53.254;6.600;2023-06-14T08:07:14;22.50;92.10
51837;DHT22;38941;53.254;6.600;2023-06-14T08:09:15;22.60;91.80
51837;DHT22;38941;53.254;6.600;2023-06-14T08:11:16;22.70;91.40
51837;DHT22;38941;53.254;6.600;2023-06-14T08:13:17;22.80;91.20
51837;DHT22;38941;53.254;6.600;2023-06-14T08:15:18;22.90;91.10
51837;DHT22;38941;53.254;6.600;2023-06-14T08:17:20;23.00;90.80
51837;DHT22;38941;53.254;6.600;2023-06-14T08:19:20;23.20;90.70
51837;DHT22;38941;53.254;6.600;2023-06-14T08:21:21;23.30;90.60
51837;DHT22;38941;53.254;6.600;2023-06-14T08:23:22;23.50;90.50
51837;DHT22;38941;53.254;6.600;2023-06-14T08:25:23;23.50;90.10
51837;DHT22;38941;53.254;6.600;2023-06-14T08:27:24;23.70;90.10
51837;DHT22;38941;53.254;6.600;2023-06-14T08:29:25;23.80;89.30
51837;DHT22;38941;53.254;6.600;2023-06-14T08:31:29;23.90;88.40
51837;DHT22;38941;53.254;6.600;2023-06-14T08:33:32;24.10;87.30
51837;DHT22;38941;53.254;6.600;2023-06-14T08:35:37;24.00;85.90
51837;DHT22;38941;53.254;6.600;2023-06-14T08:37:40;24.00;85.60
51837;DHT22;38941;53.254;6.600;2023-06-14T08:39:44;24.10;85.90
51837;DHT22;38941;53.254;6.600;2023-06-14T08:41:46;24.30;85.90
51837;DHT22;38941;53.254;6.600;2023-06-14T08:43:48;24.30;85.50
51837;DHT22;38941;53.254;6.600;2023-06-14T08:45:53;24.60;85.10
51837;DHT22;38941;53.254;6.600;2023-06-14T08:47:58;24.60;84.40
51837;DHT22;38941;53.254;6.600;2023-06-14T08:50:00;24.80;84.20
51837;DHT22;38941;53.254;6.600;2023-06-14T08:52:01;24.90;83.40
51837;DHT22;38941;53.254;6.600;2023-06-14T08:54:02;25.00;82.20
51837;DHT22;38941;53.254;6.600;2023-06-14T08:56:05;25.20;82.10
51837;DHT22;38941;53.254;6.600;2023-06-14T08:58:08;25.30;81.30
51837;DHT22;38941;53.254;6.600;2023-06-14T09:00:11;25.50;80.70
51837;DHT22;38941;53.254;6.600;2023-06-14T09:02:13;25.50;80.20
51837;DHT22;38941;53.254;6.600;2023-06-14T09:04:15;25.70;80.00
51837;DHT22;38941;53.254;6.600;2023-06-14T09:06:16;25.90;79.60
51837;DHT22;38941;53.254;6.600;2023-06-14T09:08:19;26.00;79.20
51837;DHT22;38941;53.254;6.600;2023-06-14T09:10:23;26.20;78.90
51837;DHT22;38941;53.254;6.600;2023-06-14T09:12:24;26.20;78.20
51837;DHT22;38941;53.254;6.600;2023-06-14T09:14:26;26.20;77.70
51837;DHT22;38941;53.254;6.600;2023-06-14T09:16:27;26.30;77.30
51837;DHT22;38941;53.254;6.600;2023-06-14T09:18:36;26.50;76.40
51837;DHT22;38941;53.254;6.600;2023-06-14T09:20:37;26.60;75.10
51837;DHT22;38941;53.254;6.600;2023-06-14T09:22:39;26.60;75.30
51837;DHT22;38941;53.254;6.600;2023-06-14T09:24:41;26.60;74.50
51837;DHT22;38941;53.254;6.600;2023-06-14T09:26:42;26.70;73.90
51837;DHT22;38941;53.254;6.600;2023-06-14T09:28:43;26.70;73.60
51837;DHT22;38941;53.254;6.600;2023-06-14T09:30:48;26.70;73.10
51837;DHT22;38941;53.254;6.600;2023-06-14T09:32:49;26.80;72.70
51837;DHT22;38941;53.254;6.600;2023-06-14T09:34:51;26.80;72.10
51837;DHT22;38941;53.254;6.600;2023-06-14T09:36:54;26.70;71.10
51837;DHT22;38941;53.254;6.600;2023-06-14T09:38:59;26.80;71.50
51837;DHT22;38941;53.254;6.600;2023-06-14T09:41:03;26.90;70.70
51837;DHT22;38941;53.254;6.600;2023-06-14T09:43:08;26.90;69.90
51837;DHT22;38941;53.254;6.600;2023-06-14T09:45:10;27.00;69.50
51837;DHT22;38941;53.254;6.600;2023-06-14T09:47:12;27.10;69.30
51837;DHT22;38941;53.254;6.600;2023-06-14T09:49:16;27.20;70.00
51837;DHT22;38941;53.254;6.600;2023-06-14T09:51:17;27.30;68.50
51837;DHT22;38941;53.254;6.600;2023-06-14T09:53:21;27.40;68.20
51837;DHT22;38941;53.254;6.600;2023-06-14T09:55:27;27.60;67.60
51837;DHT22;38941;53.254;6.600;2023-06-14T09:57:31;27.60;67.30
51837;DHT22;38941;53.254;6.600;2023-06-14T09:59:34;27.80;67.30
51837;DHT22;38941;53.254;6.600;2023-06-14T10:01:43;28.10;67.50
51837;DHT22;38941;53.254;6.600;2023-06-14T10:03:46;28.20;66.00
51837;DHT22;38941;53.254;6.600;2023-06-14T10:05:50;28.40;65.70
51837;DHT22;38941;53.254;6.600;2023-06-14T10:07:53;28.50;65.10
51837;DHT22;38941;53.254;6.600;2023-06-14T10:09:57;28.70;64.70
51837;DHT22;38941;53.254;6.600;2023-06-14T10:11:57;28.60;64.00
51837;DHT22;38941;53.254;6.600;2023-06-14T10:13:59;28.60;63.60
51837;DHT22;38941;53.254;6.600;2023-06-14T10:16:09;28.70;63.30
51837;DHT22;38941;53.254;6.600;2023-06-14T10:18:32;28.70;61.90
51837;DHT22;38941;53.254;6.600;2023-06-14T10:23:23;28.70;59.50
51837;DHT22;38941;53.254;6.600;2023-06-14T10:25:31;28.80;61.60
51837;DHT22;38941;53.254;6.600;2023-06-14T10:27:33;28.90;60.50
51837;DHT22;38941;53.254;6.600;2023-06-14T10:31:59;29.20;60.10
51837;DHT22;38941;53.254;6.600;2023-06-14T10:33:59;29.30;60.50
51837;DHT22;38941;53.254;6.600;2023-06-14T11:10:39;29.50;59.60
51837;DHT22;38941;53.254;6.600;2023-06-14T11:12:41;30.10;55.20
51837;DHT22;38941;53.254;6.600;2023-06-14T11:14:49;30.30;55.10
51837;DHT22;38941;53.254;6.600;2023-06-14T11:16:51;30.40;54.80
51837;DHT22;38941;53.254;6.600;2023-06-14T11:18:52;30.60;54.40
51837;DHT22;38941;53.254;6.600;2023-06-14T11:20:55;30.70;54.50
51837;DHT22;38941;53.254;6.600;2023-06-14T11:22:55;30.60;53.60
51837;DHT22;38941;53.254;6.600;2023-06-14T11:24:56;30.30;53.60
51837;DHT22;38941;53.254;6.600;2023-06-14T11:27:03;30.10;53.80
51837;DHT22;38941;53.254;6.600;2023-06-14T11:29:06;30.10;53.60
51837;DHT22;38941;53.254;6.600;2023-06-14T11:31:07;29.70;52.90
51837;DHT22;38941;53.254;6.600;2023-06-14T11:33:11;29.40;53.20
51837;DHT22;38941;53.254;6.600;2023-06-14T11:35:13;29.60;53.60
51837;DHT22;38941;53.254;6.600;2023-06-14T11:37:15;29.70;53.10
51837;DHT22;38941;53.254;6.600;2023-06-14T11:39:17;29.90;53.50
51837;DHT22;38941;53.254;6.600;2023-06-14T11:41:38;30.00;53.30
51837;DHT22;38941;53.254;6.600;2023-06-14T11:43:41;30.10;52.60
51837;DHT22;38941;53.254;6.600;2023-06-14T11:45:41;30.20;52.80
51837;DHT22;38941;53.254;6.600;2023-06-14T11:47:43;30.40;52.80
51837;DHT22;38941;53.254;6.600;2023-06-14T11:49:44;30.60;52.80
51837;DHT22;38941;53.254;6.600;2023-06-14T11:59:58;31.00;52.90
51837;DHT22;38941;53.254;6.600;2023-06-14T12:02:00;31.80;51.20
51837;DHT22;38941;53.254;6.600;2023-06-14T12:04:09;31.80;50.00
51837;DHT22;38941;53.254;6.600;2023-06-14T12:06:13;31.60;49.70
51837;DHT22;38941;53.254;6.600;2023-06-14T12:08:17;31.60;49.80
51837;DHT22;38941;53.254;6.600;2023-06-14T12:10:19;31.80;50.80
51837;DHT22;38941;53.254;6.600;2023-06-14T12:12:22;32.10;51.00
51837;DHT22;38941;53.254;6.600;2023-06-14T12:14:28;31.90;50.30
51837;DHT22;38941;53.254;6.600;2023-06-14T12:16:33;32.00;49.90
51837;DHT22;38941;53.254;6.600;2023-06-14T12:18:36;31.70;49.60
51837;DHT22;38941;53.254;6.600;2023-06-14T12:20:39;31.70;49.70
51837;DHT22;38941;53.254;6.600;2023-06-14T12:22:53;31.60;49.90
51837;DHT22;38941;53.254;6.600;2023-06-14T12:24:57;31.40;49.30
51837;DHT22;38941;53.254;6.600;2023-06-14T12:26:58;31.20;49.90
51837;DHT22;38941;53.254;6.600;2023-06-14T12:29:06;31.00;49.70
51837;DHT22;38941;53.254;6.600;2023-06-14T12:31:12;30.80;48.60
51837;DHT22;38941;53.254;6.600;2023-06-14T12:33:14;30.70;48.80
51837;DHT22;38941;53.254;6.600;2023-06-14T12:35:16;30.60;48.80
51837;DHT22;38941;53.254;6.600;2023-06-14T12:37:17;30.90;48.70
51837;DHT22;38941;53.254;6.600;2023-06-14T12:39:19;31.00;48.70
51837;DHT22;38941;53.254;6.600;2023-06-14T12:41:21;31.00;48.60
51837;DHT22;38941;53.254;6.600;2023-06-14T12:43:25;31.20;48.50
51837;DHT22;38941;53.254;6.600;2023-06-14T12:45:28;31.40;48.40
51837;DHT22;38941;53.254;6.600;2023-06-14T12:47:34;31.80;48.10
51837;DHT22;38941;53.254;6.600;2023-06-14T12:49:37;31.90;47.50
51837;DHT22;38941;53.254;6.600;2023-06-14T12:51:39;32.00;48.10
51837;DHT22;38941;53.254;6.600;2023-06-14T12:53:43;32.10;47.50
51837;DHT22;38941;53.254;6.600;2023-06-14T12:55:46;32.20;47.30
51837;DHT22;38941;53.254;6.600;2023-06-14T12:57:49;32.10;46.90
51837;DHT22;38941;53.254;6.600;2023-06-14T12:59:52;32.10;47.20
51837;DHT22;38941;53.254;6.600;2023-06-14T13:01:54;31.90;46.90
51837;DHT22;38941;53.254;6.600;2023-06-14T13:03:59;31.70;47.30
51837;DHT22;38941;53.254;6.600;2023-06-14T13:06:02;31.70;47.20
51837;DHT22;38941;53.254;6.600;2023-06-14T13:08:06;31.60;47.10
51837;DHT22;38941;53.254;6.600;2023-06-14T13:10:08;31.30;46.80
51837;DHT22;38941;53.254;6.600;2023-06-14T13:12:13;31.20;47.00
51837;DHT22;38941;53.254;6.600;2023-06-14T13:14:15;31.10;46.70
51837;DHT22;38941;53.254;6.600;2023-06-14T13:16:17;31.10;46.70
51837;DHT22;38941;53.254;6.600;2023-06-14T13:18:19;31.50;47.30
51837;DHT22;38941;53.254;6.600;2023-06-14T13:20:21;31.60;47.00
51837;DHT22;38941;53.254;6.600;2023-06-14T13:22:21;31.70;47.00
51837;DHT22;38941;53.254;6.600;2023-06-14T13:24:23;31.60;46.60
51837;DHT22;38941;53.254;6.600;2023-06-14T13:26:25;31.50;46.20
51837;DHT22;38941;53.254;6.600;2023-06-14T13:28:29;31.60;45.80
51837;DHT22;38941;53.254;6.600;2023-06-14T13:30:34;31.40;45.40
51837;DHT22;38941;53.254;6.600;2023-06-14T13:32:34;31.20;45.70
51837;DHT22;38941;53.254;6.600;2023-06-14T13:34:37;31.30;46.00
51837;DHT22;38941;53.254;6.600;2023-06-14T13:36:39;31.40;45.80
51837;DHT22;38941;53.254;6.600;2023-06-14T13:38:41;31.20;45.50
51837;DHT22;38941;53.254;6.600;2023-06-14T13:40:44;31.20;46.20
51837;DHT22;38941;53.254;6.600;2023-06-14T13:42:46;31.20;46.40